createdAt,value
2023-03-25T00:01:26.195Z,49.88
2023-03-25T00:03:54.608Z,49.70
2023-03-25T00:06:22.635Z,49.63
2023-03-25T00:08:52.108Z,49.61
2023-03-25T00:11:20.439Z,49.68
2023-03-25T00:13:48.640Z,49.50
2023-03-25T00:16:25.845Z,49.33
2023-03-25T00:18:54.168Z,49.20
2023-03-25T00:21:23.484Z,48.97
2023-03-25T00:23:51.598Z,48.87
2023-03-25T00:26:21.572Z,48.84
2023-03-25T00:28:49.614Z,48.77
2023-03-25T00:31:19.611Z,48.59
2023-03-25T00:33:50.976Z,48.61
2023-03-25T00:36:22.764Z,48.51
2023-03-25T00:38:51.506Z,48.09
2023-03-25T00:41:27.856Z,47.71
2023-03-25T00:43:58.517Z,47.25
2023-03-25T00:46:29.028Z,47.19
2023-03-25T00:48:58.440Z,46.92
2023-03-25T00:51:31.359Z,46.78
2023-03-25T00:54:03.544Z,46.74
2023-03-25T00:56:34.232Z,46.64
2023-03-25T00:59:02.692Z,46.63
2023-03-25T01:01:31.175Z,46.74
2023-03-25T01:04:00.597Z,46.83
2023-03-25T01:06:32.543Z,46.83
2023-03-25T01:09:05.972Z,46.92
2023-03-25T01:11:35.074Z,47.18
2023-03-25T01:14:05.358Z,47.45
2023-03-25T01:16:33.830Z,47.67
2023-03-25T01:19:01.959Z,47.65
2023-03-25T01:21:34.066Z,47.59
2023-03-25T01:24:06.219Z,47.52
2023-03-25T01:26:34.701Z,47.35
2023-03-25T01:29:03.041Z,47.39
2023-03-25T01:31:32.262Z,47.44
2023-03-25T01:34:00.918Z,47.36
2023-03-25T01:36:29.761Z,46.80
2023-03-25T01:38:59.244Z,46.96
2023-03-25T01:41:42.275Z,46.82
2023-03-25T01:44:20.085Z,46.61
2023-03-25T01:46:49.880Z,46.47
2023-03-25T01:49:40.873Z,46.35
2023-03-25T01:52:21.656Z,46.30
2023-03-25T01:54:51.112Z,46.43
2023-03-25T01:57:20.454Z,46.63
2023-03-25T01:59:48.729Z,46.65
2023-03-25T02:02:20.229Z,46.87
2023-03-25T02:04:59.424Z,46.95
2023-03-25T02:07:31.176Z,47.11
2023-03-25T02:10:05.859Z,46.88
2023-03-25T02:12:34.437Z,47.04
2023-03-25T02:15:04.785Z,47.58
2023-03-25T02:17:36.610Z,47.58
2023-03-25T02:20:22.837Z,47.45
2023-03-25T02:23:10.305Z,47.57
2023-03-25T02:26:17.817Z,47.35
2023-03-25T02:28:53.121Z,47.41
2023-03-25T02:31:32.577Z,47.16
2023-03-25T02:34:32.245Z,47.41
2023-03-25T02:37:22.993Z,47.07
2023-03-25T02:40:01.038Z,46.88
2023-03-25T02:42:37.557Z,46.80
2023-03-25T02:45:13.063Z,46.77
2023-03-25T02:47:49.281Z,46.60
2023-03-25T02:50:21.670Z,46.57
2023-03-25T02:52:51.597Z,46.45
2023-03-25T02:55:22.882Z,46.25
2023-03-25T02:57:53.294Z,46.22
2023-03-25T03:00:29.203Z,46.04
2023-03-25T03:03:01.248Z,46.19
2023-03-25T03:05:32.857Z,46.10
2023-03-25T03:08:07.084Z,46.08
2023-03-25T03:11:17.057Z,46.25
2023-03-25T03:13:51.144Z,46.17
2023-03-25T03:16:41.905Z,46.26
2023-03-25T03:19:40.254Z,46.54
2023-03-25T03:22:52.967Z,46.76
2023-03-25T03:25:32.995Z,47.10
2023-03-25T03:28:11.383Z,47.87
2023-03-25T03:30:54.473Z,48.35
2023-03-25T03:33:47.539Z,48.23
2023-03-25T03:36:17.599Z,48.23
2023-03-25T03:38:57.531Z,48.33
2023-03-25T03:41:27.232Z,48.78
2023-03-25T03:44:02.914Z,49.09
2023-03-25T03:46:44.160Z,49.31
2023-03-25T03:49:17.277Z,49.56
2023-03-25T03:51:54.322Z,49.74
2023-03-25T03:54:27.122Z,49.62
2023-03-25T03:57:07.766Z,49.46
2023-03-25T03:59:53.765Z,49.58
2023-03-25T04:02:28.558Z,49.22
2023-03-25T04:05:00.996Z,48.93
2023-03-25T04:07:41.836Z,48.80
2023-03-25T04:10:22.118Z,48.79
2023-03-25T04:12:52.050Z,48.69
2023-03-25T04:15:23.009Z,48.39
2023-03-25T04:17:52.962Z,47.88
2023-03-25T04:20:24.148Z,47.66
2023-03-25T04:22:52.716Z,47.68
2023-03-25T04:25:25.431Z,47.60
2023-03-25T04:27:53.964Z,47.42
2023-03-25T04:30:23.028Z,47.24
2023-03-25T04:32:51.872Z,47.33
2023-03-25T04:35:20.460Z,47.35
2023-03-25T04:37:53.995Z,47.40
2023-03-25T04:40:22.034Z,47.32
2023-03-25T04:42:51.242Z,47.74
2023-03-25T04:45:19.501Z,48.19
2023-03-25T04:47:49.448Z,48.77
2023-03-25T04:50:26.006Z,49.19
2023-03-25T04:52:54.666Z,49.61
2023-03-25T04:55:23.944Z,49.85
2023-03-25T04:57:53.896Z,50.02
2023-03-25T05:00:25.006Z,49.88
2023-03-25T05:02:55.049Z,50.11
2023-03-25T05:05:24.862Z,50.20
2023-03-25T05:07:58.430Z,50.30
2023-03-25T05:10:29.848Z,50.17
2023-03-25T05:13:03.314Z,50.11
2023-03-25T05:15:39.364Z,50.17
2023-03-25T05:18:15.286Z,50.06
2023-03-25T05:20:51.286Z,49.88
2023-03-25T05:23:22.234Z,49.71
2023-03-25T05:25:51.422Z,49.63
2023-03-25T05:28:20.109Z,49.45
2023-03-25T05:30:48.484Z,49.20
2023-03-25T05:33:22.462Z,48.95
2023-03-25T05:35:51.208Z,49.00
2023-03-25T05:38:19.702Z,48.89
2023-03-25T05:40:48.516Z,48.67
2023-03-25T05:43:23.257Z,48.68
2023-03-25T05:45:53.058Z,48.56
2023-03-25T05:48:21.726Z,48.41
2023-03-25T05:50:50.544Z,48.35
2023-03-25T05:53:20.820Z,48.25
2023-03-25T05:55:52.728Z,48.31
2023-03-25T05:58:25.372Z,48.43
2023-03-25T06:00:55.385Z,48.41
2023-03-25T06:03:26.270Z,48.52
2023-03-25T06:05:55.074Z,48.73
2023-03-25T06:08:26.549Z,48.69
2023-03-25T06:11:00.871Z,48.75
2023-03-25T06:13:34.086Z,48.75
2023-03-25T06:16:03.222Z,48.50
2023-03-25T06:18:33.536Z,48.34
2023-03-25T06:21:01.644Z,48.50
2023-03-25T06:23:30.048Z,48.69
2023-03-25T06:25:58.748Z,48.57
2023-03-25T06:28:27.123Z,48.62
2023-03-25T06:31:07.226Z,48.40
2023-03-25T06:33:50.072Z,48.70
2023-03-25T06:36:18.908Z,48.92
2023-03-25T06:38:50.855Z,48.84
2023-03-25T06:41:25.249Z,48.86
2023-03-25T06:44:16.967Z,48.87
2023-03-25T06:47:11.521Z,49.01
2023-03-25T06:49:45.321Z,49.07
2023-03-25T06:52:13.696Z,49.08
2023-03-25T06:54:42.330Z,48.95
2023-03-25T06:57:10.878Z,49.00
2023-03-25T06:59:38.983Z,49.08
2023-03-25T07:02:07.237Z,49.16
2023-03-25T07:04:35.294Z,49.09
2023-03-25T07:07:04.295Z,48.87
2023-03-25T07:09:34.309Z,48.81
2023-03-25T07:12:02.596Z,48.33
2023-03-25T07:14:31.042Z,48.28
2023-03-25T07:16:59.178Z,48.13
2023-03-25T07:19:32.284Z,47.88
2023-03-25T07:22:03.105Z,47.72
2023-03-25T07:24:32.878Z,47.55
2023-03-25T07:27:01.411Z,47.28
2023-03-25T07:29:30.562Z,46.95
2023-03-25T07:31:58.822Z,46.54
2023-03-25T07:34:31.438Z,46.23
2023-03-25T07:37:02.381Z,46.20
2023-03-25T07:39:30.477Z,46.00
2023-03-25T07:42:00.136Z,45.97
2023-03-25T07:44:46.928Z,46.08
2023-03-25T07:47:15.811Z,45.90
2023-03-25T07:49:44.764Z,45.58
2023-03-25T07:52:12.844Z,45.38
2023-03-25T07:54:43.341Z,45.48
2023-03-25T07:57:11.526Z,45.24
2023-03-25T07:59:47.821Z,44.94
2023-03-25T08:02:16.228Z,45.12
2023-03-25T08:04:44.796Z,44.97
2023-03-25T08:07:13.165Z,45.04
2023-03-25T08:09:42.933Z,44.94
2023-03-25T08:12:11.311Z,45.02
2023-03-25T08:14:43.309Z,45.01
2023-03-25T08:17:11.559Z,44.66
2023-03-25T08:19:41.789Z,44.62
2023-03-25T08:22:11.049Z,44.55
2023-03-25T08:24:39.614Z,44.52
2023-03-25T08:27:16.335Z,44.25
2023-03-25T08:29:47.147Z,44.01
2023-03-25T08:32:15.525Z,43.83
2023-03-25T08:34:43.690Z,43.57
2023-03-25T08:37:13.943Z,42.87
2023-03-25T08:39:45.316Z,42.77
2023-03-25T08:42:13.813Z,43.22
2023-03-25T08:44:41.874Z,43.45
2023-03-25T08:47:09.896Z,43.47
2023-03-25T08:49:41.588Z,43.30
2023-03-25T08:52:11.448Z,43.35
2023-03-25T08:54:40.367Z,43.30
2023-03-25T08:57:09.131Z,43.34
2023-03-25T08:59:37.940Z,43.57
2023-03-25T09:02:06.453Z,43.76
2023-03-25T09:04:41.012Z,43.77
2023-03-25T09:07:12.656Z,43.86
2023-03-25T09:09:41.350Z,43.87
2023-03-25T09:12:14.130Z,43.92
2023-03-25T09:14:43.107Z,44.13
2023-03-25T09:17:11.180Z,44.26
2023-03-25T09:19:41.018Z,44.27
2023-03-25T09:22:09.352Z,44.18
2023-03-25T09:24:38.385Z,44.08
2023-03-25T09:27:07.702Z,43.86
2023-03-25T09:29:36.593Z,43.48
2023-03-25T09:32:18.726Z,43.36
2023-03-25T09:34:48.419Z,43.32
2023-03-25T09:37:16.436Z,43.33
2023-03-25T09:39:46.227Z,43.23
2023-03-25T09:42:31.184Z,43.29
2023-03-25T09:45:17.846Z,43.25
2023-03-25T09:47:53.304Z,43.33
2023-03-25T09:50:21.401Z,43.34
2023-03-25T09:52:56.279Z,43.45
2023-03-25T09:55:28.944Z,43.69
2023-03-25T09:58:24.279Z,43.85
2023-03-25T10:01:16.071Z,44.17
2023-03-25T10:03:53.391Z,44.48
2023-03-25T10:06:22.169Z,44.63
2023-03-25T10:09:00.333Z,44.67
2023-03-25T10:11:40.847Z,44.80
2023-03-25T10:14:19.860Z,45.03
2023-03-25T10:16:54.600Z,45.25
2023-03-25T10:19:57.187Z,45.30
2023-03-25T10:22:28.498Z,45.37
2023-03-25T10:25:00.976Z,45.42
2023-03-25T10:27:41.649Z,45.46
2023-03-25T10:30:23.284Z,45.66
2023-03-25T10:32:57.547Z,45.84
2023-03-25T10:35:30.069Z,45.89
2023-03-25T10:38:24.418Z,45.90
2023-03-25T10:41:11.578Z,45.97
2023-03-25T10:43:42.221Z,45.97
2023-03-25T10:46:28.852Z,45.78
2023-03-25T10:48:58.293Z,45.69
2023-03-25T10:51:28.505Z,45.42
2023-03-25T10:54:05.259Z,45.26
2023-03-25T10:56:35.763Z,45.22
2023-03-25T10:59:08.798Z,45.11
2023-03-25T11:01:38.441Z,44.96
2023-03-25T11:04:18.713Z,44.85
2023-03-25T11:06:55.482Z,44.66
2023-03-25T11:09:30.801Z,44.35
2023-03-25T11:12:05.138Z,44.27
2023-03-25T11:14:37.801Z,44.35
2023-03-25T11:17:11.941Z,44.08
2023-03-25T11:19:53.286Z,43.79
2023-03-25T11:22:29.159Z,43.34
2023-03-25T11:25:05.019Z,43.30
2023-03-25T11:27:41.085Z,42.87
2023-03-25T11:30:16.432Z,42.40
2023-03-25T11:32:46.804Z,42.31
2023-03-25T11:35:19.133Z,42.06
2023-03-25T11:37:49.372Z,41.73
2023-03-25T11:40:19.227Z,41.81
2023-03-25T11:42:52.477Z,42.10
2023-03-25T11:45:33.316Z,42.43
2023-03-25T11:48:13.395Z,42.79
2023-03-25T11:50:46.985Z,43.04
2023-03-25T11:53:16.209Z,43.16
2023-03-25T11:55:46.564Z,43.15
2023-03-25T11:58:16.103Z,43.08
2023-03-25T12:00:51.696Z,43.03
2023-03-25T12:03:23.179Z,43.04
2023-03-25T12:06:06.434Z,43.04
2023-03-25T12:08:56.662Z,43.00
2023-03-25T12:11:42.768Z,42.94
2023-03-25T12:14:32.926Z,42.80
2023-03-25T12:17:01.120Z,42.72
2023-03-25T12:19:55.086Z,42.89
2023-03-25T12:22:43.340Z,42.97
2023-03-25T12:25:35.001Z,43.15
2023-03-25T12:28:18.939Z,43.50
2023-03-25T12:31:15.614Z,43.47
2023-03-25T12:34:02.593Z,43.19
2023-03-25T12:37:06.521Z,43.48
2023-03-25T12:40:03.893Z,43.57
2023-03-25T12:42:40.467Z,43.67
2023-03-25T12:45:17.193Z,44.18
2023-03-25T12:48:06.590Z,45.21
2023-03-25T12:50:44.142Z,46.01
2023-03-25T12:53:19.688Z,46.88
2023-03-25T12:55:57.278Z,47.23
2023-03-25T12:58:50.699Z,47.44
2023-03-25T13:01:49.280Z,47.82
2023-03-25T13:04:24.477Z,47.92
2023-03-25T13:07:02.014Z,48.13
2023-03-25T13:09:45.060Z,48.25
2023-03-25T13:12:22.874Z,48.78
2023-03-25T13:14:57.589Z,49.30
2023-03-25T13:17:49.089Z,49.68
2023-03-25T13:20:17.937Z,49.73
2023-03-25T13:22:51.447Z,49.93
2023-03-25T13:25:36.908Z,49.87
2023-03-25T13:28:06.683Z,49.80
2023-03-25T13:30:37.128Z,49.50
2023-03-25T13:33:08.329Z,49.64
2023-03-25T13:35:57.921Z,49.61
2023-03-25T13:38:33.156Z,49.50
2023-03-25T13:41:15.388Z,49.48
2023-03-25T13:43:56.746Z,49.17
2023-03-25T13:46:47.397Z,48.88
2023-03-25T13:49:31.040Z,48.47
2023-03-25T13:52:00.176Z,48.04
2023-03-25T13:54:35.282Z,47.76
2023-03-25T13:57:13.365Z,47.56
2023-03-25T13:59:48.073Z,47.23
2023-03-25T14:02:38.972Z,47.05
2023-03-25T14:05:32.538Z,47.11
2023-03-25T14:08:31.406Z,46.94
2023-03-25T14:11:17.673Z,47.01
2023-03-25T14:13:56.198Z,47.08
2023-03-25T14:16:29.144Z,46.90
2023-03-25T14:19:09.655Z,47.07
2023-03-25T14:21:38.466Z,47.13
2023-03-25T14:24:18.302Z,47.13
2023-03-25T14:26:52.846Z,47.26
2023-03-25T14:29:34.601Z,47.34
2023-03-25T14:32:16.597Z,47.62
2023-03-25T14:34:50.241Z,47.82
2023-03-25T14:37:21.781Z,48.00
2023-03-25T14:39:51.428Z,48.07
2023-03-25T14:42:24.308Z,48.10
2023-03-25T14:44:56.180Z,48.21
2023-03-25T14:47:32.286Z,48.39
2023-03-25T14:50:22.086Z,48.70
2023-03-25T14:52:52.079Z,48.91
2023-03-25T14:55:41.229Z,49.06
2023-03-25T14:58:26.442Z,49.14
2023-03-25T15:01:10.334Z,49.20
2023-03-25T15:03:40.476Z,49.25
2023-03-25T15:06:09.949Z,49.30
2023-03-25T15:08:39.899Z,49.43
2023-03-25T15:11:17.157Z,49.52
2023-03-25T15:13:56.191Z,49.58
2023-03-25T15:16:37.954Z,49.54
2023-03-25T15:19:13.634Z,49.66
2023-03-25T15:21:58.278Z,49.62
2023-03-25T15:24:33.486Z,49.62
2023-03-25T15:27:30.183Z,49.58
2023-03-25T15:30:25.991Z,49.62
2023-03-25T15:33:13.796Z,49.88
2023-03-25T15:36:08.635Z,49.94
2023-03-25T15:39:06.904Z,50.02
2023-03-25T15:42:13.384Z,49.88
2023-03-25T15:45:03.519Z,49.87
2023-03-25T15:47:44.644Z,49.92
2023-03-25T15:50:38.267Z,49.99
2023-03-25T15:53:32.799Z,50.08
2023-03-25T15:56:16.135Z,50.45
2023-03-25T15:59:08.353Z,50.65
2023-03-25T16:01:40.882Z,50.75
2023-03-25T16:04:12.318Z,50.93
2023-03-25T16:06:42.574Z,51.21
2023-03-25T16:09:18.164Z,51.25
2023-03-25T16:11:47.177Z,51.47
2023-03-25T16:14:21.162Z,51.55
2023-03-25T16:16:51.977Z,51.69
2023-03-25T16:19:22.664Z,51.91
2023-03-25T16:21:52.454Z,52.06
2023-03-25T16:24:23.812Z,52.19
2023-03-25T16:26:53.051Z,52.34
2023-03-25T16:29:25.060Z,52.55
2023-03-25T16:31:56.816Z,52.71
2023-03-25T16:34:25.958Z,52.90
2023-03-25T16:36:54.715Z,53.03
2023-03-25T16:39:23.178Z,53.29
2023-03-25T16:41:53.486Z,53.57
2023-03-25T16:44:22.986Z,53.82
2023-03-25T16:46:52.443Z,54.08
2023-03-25T16:49:31.846Z,54.31
2023-03-25T16:52:06.895Z,54.45
2023-03-25T16:54:43.684Z,54.74
2023-03-25T16:57:16.894Z,55.18
2023-03-25T16:59:46.853Z,55.29
2023-03-25T17:02:28.536Z,55.12
2023-03-25T17:05:22.438Z,55.25
2023-03-25T17:07:56.759Z,55.25
2023-03-25T17:10:29.494Z,55.54
2023-03-25T17:13:31.871Z,55.63
2023-03-25T17:16:00.789Z,55.72
2023-03-25T17:18:30.639Z,55.80
2023-03-25T17:21:04.250Z,55.79
2023-03-25T17:23:36.353Z,55.97
2023-03-25T17:26:08.327Z,56.09
2023-03-25T17:28:41.552Z,56.00
2023-03-25T17:31:39.604Z,55.99
2023-03-25T17:34:08.432Z,56.06
2023-03-25T17:36:40.592Z,56.12
2023-03-25T17:39:24.977Z,56.16
2023-03-25T17:42:01.564Z,56.31
2023-03-25T17:44:37.449Z,56.55
2023-03-25T17:47:07.158Z,57.00
2023-03-25T17:49:37.482Z,57.48
2023-03-25T17:52:08.558Z,58.02
2023-03-25T17:54:38.900Z,58.16
2023-03-25T17:57:10.666Z,58.01
2023-03-25T17:59:38.847Z,57.87
2023-03-25T18:02:14.717Z,57.65
2023-03-25T18:04:42.984Z,57.40
2023-03-25T18:07:13.309Z,57.17
2023-03-25T18:09:42.548Z,57.13
2023-03-25T18:12:15.768Z,57.22
2023-03-25T18:14:45.058Z,57.50
2023-03-25T18:17:13.201Z,57.89
2023-03-25T18:19:47.579Z,58.21
2023-03-25T18:22:20.146Z,58.37
2023-03-25T18:24:49.184Z,58.58
2023-03-25T18:27:27.741Z,58.73
2023-03-25T18:30:29.553Z,58.82
2023-03-25T18:32:58.426Z,58.96
2023-03-25T18:35:27.308Z,59.15
2023-03-25T18:37:55.811Z,59.29
2023-03-25T18:40:27.465Z,59.48
2023-03-25T18:42:56.161Z,59.57
2023-03-25T18:45:24.918Z,59.73
2023-03-25T18:47:54.139Z,59.79
2023-03-25T18:50:30.705Z,59.93
2023-03-25T18:53:01.977Z,60.03
2023-03-25T18:55:32.371Z,60.12
2023-03-25T18:58:00.509Z,60.22
2023-03-25T19:00:48.275Z,60.58
2023-03-25T19:03:17.990Z,60.97
2023-03-25T19:05:50.419Z,61.20
2023-03-25T19:08:23.545Z,61.56
2023-03-25T19:10:55.852Z,61.86
2023-03-25T19:13:34.959Z,62.16
2023-03-25T19:16:04.185Z,62.27
2023-03-25T19:18:33.249Z,62.70
2023-03-25T19:21:10.140Z,63.27
2023-03-25T19:23:41.547Z,63.76
2023-03-25T19:26:09.626Z,63.99
2023-03-25T19:28:38.593Z,64.25
2023-03-25T19:31:07.066Z,64.52
2023-03-25T19:33:35.271Z,64.96
2023-03-25T19:36:04.779Z,65.41
2023-03-25T19:38:33.194Z,65.73
2023-03-25T19:41:09.116Z,65.93
2023-03-25T19:43:38.583Z,66.16
2023-03-25T19:46:07.340Z,66.27
2023-03-25T19:48:36.264Z,66.30
2023-03-25T19:51:04.635Z,66.55
2023-03-25T19:53:34.380Z,66.69
2023-03-25T19:56:04.236Z,66.85
2023-03-25T19:58:34.832Z,66.79
2023-03-25T20:01:03.268Z,66.65
2023-03-25T20:03:33.772Z,66.60
2023-03-25T20:06:02.842Z,66.56
2023-03-25T20:08:32.326Z,66.46
2023-03-25T20:11:01.435Z,66.39
2023-03-25T20:13:36.719Z,66.37
2023-03-25T20:16:05.859Z,66.36
2023-03-25T20:18:34.346Z,66.35
2023-03-25T20:21:02.499Z,66.32
2023-03-25T20:23:30.935Z,66.46
2023-03-25T20:25:58.975Z,66.47
2023-03-25T20:28:28.089Z,66.47
2023-03-25T20:30:57.734Z,66.57
2023-03-25T20:33:28.215Z,66.82
2023-03-25T20:35:56.798Z,67.28
2023-03-25T20:38:24.950Z,67.74
2023-03-25T20:40:54.676Z,68.16
2023-03-25T20:43:23.051Z,68.54
2023-03-25T20:45:56.549Z,68.76
2023-03-25T20:48:28.296Z,68.95
2023-03-25T20:51:04.505Z,68.95
2023-03-25T20:53:34.983Z,68.80
2023-03-25T20:56:03.218Z,68.83
2023-03-25T20:58:32.250Z,68.90
2023-03-25T21:01:00.548Z,68.97
2023-03-25T21:03:29.546Z,69.19
2023-03-25T21:06:00.483Z,69.34
2023-03-25T21:08:31.900Z,69.41
2023-03-25T21:11:01.793Z,69.48
2023-03-25T21:13:34.967Z,69.65
2023-03-25T21:16:04.156Z,69.72
2023-03-25T21:18:32.398Z,69.85
2023-03-25T21:21:01.498Z,69.89
2023-03-25T21:23:31.033Z,69.35
2023-03-25T21:26:09.217Z,68.43
2023-03-25T21:28:40.914Z,68.37
2023-03-25T21:31:14.137Z,67.79
2023-03-25T21:33:45.733Z,67.57
2023-03-25T21:36:14.768Z,67.50
2023-03-25T21:38:45.407Z,67.29
2023-03-25T21:41:13.717Z,67.23
2023-03-25T21:43:42.465Z,67.06
2023-03-25T21:46:11.117Z,66.85
2023-03-25T21:48:40.218Z,66.83
2023-03-25T21:51:14.521Z,67.18
2023-03-25T21:53:46.747Z,67.54
2023-03-25T21:56:20.983Z,67.87
2023-03-25T21:58:49.020Z,68.19
2023-03-25T22:01:28.572Z,68.65
2023-03-25T22:03:57.610Z,68.94
2023-03-25T22:06:28.538Z,69.21
2023-03-25T22:08:59.452Z,69.63
2023-03-25T22:11:30.901Z,70.08
2023-03-25T22:13:59.016Z,70.22
2023-03-25T22:16:28.184Z,70.45
2023-03-25T22:18:56.549Z,70.49
2023-03-25T22:21:29.668Z,70.61
2023-03-25T22:24:05.459Z,70.75
2023-03-25T22:26:35.146Z,70.77
2023-03-25T22:29:07.800Z,70.93
2023-03-25T22:31:39.823Z,71.12
2023-03-25T22:34:12.821Z,71.36
2023-03-25T22:36:46.466Z,71.53
2023-03-25T22:39:16.719Z,72.11
2023-03-25T22:41:45.037Z,72.48
2023-03-25T22:44:17.067Z,72.68
2023-03-25T22:46:48.870Z,72.33
2023-03-25T22:49:17.363Z,72.16
2023-03-25T22:51:48.970Z,72.14
2023-03-25T22:54:17.398Z,72.23
2023-03-25T22:56:46.208Z,72.34
2023-03-25T22:59:14.781Z,72.51
2023-03-25T23:01:46.735Z,72.66
2023-03-25T23:04:14.849Z,72.94
2023-03-25T23:06:44.096Z,72.94
2023-03-25T23:09:35.157Z,73.14
2023-03-25T23:12:03.373Z,73.04
2023-03-25T23:14:32.731Z,73.21
2023-03-25T23:17:01.277Z,73.31
2023-03-25T23:19:29.798Z,73.37
2023-03-25T23:22:01.480Z,73.34
2023-03-25T23:24:30.712Z,73.37
2023-03-25T23:26:58.986Z,73.43
2023-03-25T23:29:27.214Z,73.52
2023-03-25T23:31:55.738Z,73.58
2023-03-25T23:34:23.787Z,73.66
2023-03-25T23:36:52.169Z,73.80
2023-03-25T23:39:22.864Z,73.83
2023-03-25T23:41:51.101Z,73.76
2023-03-25T23:44:19.502Z,73.81
2023-03-25T23:46:51.276Z,73.85
2023-03-25T23:49:20.302Z,74.04
2023-03-25T23:51:51.169Z,74.10
2023-03-25T23:54:19.692Z,74.05
2023-03-25T23:56:47.795Z,74.08
2023-03-25T23:59:16.333Z,74.03
